createdAt,value
2023-05-08T00:00:38.765Z,7.38
2023-05-08T00:03:17.552Z,5.75
2023-05-08T00:05:44.950Z,4.80
2023-05-08T00:08:12.596Z,4.55
2023-05-08T00:10:40.002Z,4.93
2023-05-08T00:13:07.774Z,5.18
2023-05-08T00:15:36.600Z,4.15
2023-05-08T00:18:04.340Z,4.40
2023-05-08T00:20:31.784Z,3.47
2023-05-08T00:22:59.365Z,4.90
2023-05-08T00:25:27.940Z,5.05
2023-05-08T00:27:55.512Z,4.50
2023-05-08T00:30:23.316Z,3.63
2023-05-08T00:32:51.069Z,4.20
2023-05-08T00:35:18.639Z,4.55
2023-05-08T00:37:46.664Z,3.08
2023-05-08T00:40:14.547Z,4.10
2023-05-08T00:42:42.397Z,4.13
2023-05-08T00:45:10.319Z,4.22
2023-05-08T00:47:38.894Z,4.68
2023-05-08T00:50:07.328Z,3.72
2023-05-08T00:52:35.405Z,3.55
2023-05-08T00:55:06.671Z,4.93
2023-05-08T00:57:35.769Z,3.80
2023-05-08T01:00:05.744Z,4.82
2023-05-08T01:02:34.707Z,4.45
2023-05-08T01:05:03.700Z,3.50
2023-05-08T01:07:31.706Z,3.75
2023-05-08T01:09:59.053Z,3.22
2023-05-08T01:13:05.160Z,3.60
2023-05-08T01:15:43.713Z,2.95
2023-05-08T01:18:33.425Z,4.15
2023-05-08T01:21:20.219Z,4.50
2023-05-08T01:24:18.114Z,2.40
2023-05-08T01:27:03.347Z,2.30
2023-05-08T01:29:58.891Z,2.38
2023-05-08T01:32:38.600Z,3.50
2023-05-08T01:35:32.785Z,2.45
2023-05-08T01:38:40.187Z,3.05
2023-05-08T01:41:16.683Z,2.80
2023-05-08T01:44:06.334Z,2.88
2023-05-08T01:46:34.566Z,2.65
2023-05-08T01:49:33.565Z,4.47
2023-05-08T01:52:18.882Z,3.33
2023-05-08T01:54:58.885Z,3.03
2023-05-08T01:57:31.412Z,3.80
2023-05-08T02:00:03.701Z,2.97
2023-05-08T02:02:33.332Z,3.45
2023-05-08T02:05:06.037Z,3.80
2023-05-08T02:07:38.336Z,4.28
2023-05-08T02:10:08.239Z,3.13
2023-05-08T02:12:38.274Z,2.85
2023-05-08T02:15:09.424Z,3.53
2023-05-08T02:17:40.839Z,4.00
2023-05-08T02:20:15.015Z,4.38
2023-05-08T02:22:50.951Z,4.18
2023-05-08T02:25:19.718Z,4.22
2023-05-08T02:27:53.344Z,4.45
2023-05-08T02:30:24.764Z,4.22
2023-05-08T02:32:54.575Z,4.75
2023-05-08T02:35:24.665Z,3.72
2023-05-08T02:37:57.494Z,3.40
2023-05-08T02:40:29.351Z,4.63
2023-05-08T02:42:57.356Z,4.35
2023-05-08T02:45:32.747Z,5.40
2023-05-08T02:48:20.112Z,4.38
2023-05-08T02:51:03.136Z,3.42
2023-05-08T02:53:40.938Z,4.30
2023-05-08T02:56:18.908Z,3.80
2023-05-08T02:59:00.069Z,4.88
2023-05-08T03:01:45.004Z,6.57
2023-05-08T03:04:24.563Z,4.72
2023-05-08T03:06:56.953Z,5.47
2023-05-08T03:09:38.502Z,4.00
2023-05-08T03:12:16.292Z,4.18
2023-05-08T03:15:00.882Z,6.22
2023-05-08T03:17:32.655Z,4.50
2023-05-08T03:20:07.244Z,5.20
2023-05-08T03:22:38.847Z,4.43
2023-05-08T03:25:10.727Z,3.90
2023-05-08T03:27:40.153Z,4.65
2023-05-08T03:30:09.803Z,4.68
2023-05-08T03:32:39.365Z,5.20
2023-05-08T03:35:09.434Z,7.00
2023-05-08T03:37:37.649Z,4.82
2023-05-08T03:40:08.527Z,5.82
2023-05-08T03:42:37.860Z,4.20
2023-05-08T03:45:09.833Z,4.32
2023-05-08T03:47:38.300Z,4.10
2023-05-08T03:50:08.785Z,4.47
2023-05-08T03:52:36.352Z,4.18
2023-05-08T03:55:04.581Z,4.45
2023-05-08T03:57:43.799Z,5.20
2023-05-08T04:00:29.053Z,4.97
2023-05-08T04:03:26.377Z,4.22
2023-05-08T04:06:21.820Z,3.95
2023-05-08T04:09:03.348Z,4.82
2023-05-08T04:11:41.516Z,4.72
2023-05-08T04:14:16.471Z,4.38
2023-05-08T04:16:51.793Z,5.65
2023-05-08T04:19:27.904Z,4.28
2023-05-08T04:22:01.612Z,7.97
2023-05-08T04:24:32.128Z,3.92
2023-05-08T04:27:02.713Z,3.60
2023-05-08T04:29:31.242Z,3.70
2023-05-08T04:32:01.535Z,3.60
2023-05-08T04:34:29.580Z,4.22
2023-05-08T04:36:57.756Z,6.35
2023-05-08T04:39:25.126Z,4.35
2023-05-08T04:41:55.263Z,3.47
2023-05-08T04:44:22.520Z,5.15
2023-05-08T04:46:50.353Z,6.90
2023-05-08T04:49:17.689Z,4.40
2023-05-08T04:51:45.237Z,5.53
2023-05-08T04:54:12.436Z,4.80
2023-05-08T04:56:40.035Z,4.22
2023-05-08T04:59:07.493Z,4.28
2023-05-08T05:01:35.138Z,3.88
2023-05-08T05:04:02.509Z,4.70
2023-05-08T05:06:30.190Z,8.05
2023-05-08T05:08:57.523Z,5.43
2023-05-08T05:11:25.110Z,5.32
2023-05-08T05:13:52.377Z,5.43
2023-05-08T05:16:19.971Z,6.32
2023-05-08T05:18:47.557Z,5.80
2023-05-08T05:21:15.255Z,4.15
2023-05-08T05:23:42.534Z,4.15
2023-05-08T05:26:10.222Z,4.22
2023-05-08T05:28:37.688Z,6.15
2023-05-08T05:31:05.528Z,6.55
2023-05-08T05:33:32.901Z,6.88
2023-05-08T05:36:00.682Z,4.78
2023-05-08T05:38:28.007Z,5.40
2023-05-08T05:40:55.532Z,7.25
2023-05-08T05:43:22.848Z,3.60
2023-05-08T05:45:50.588Z,4.35
2023-05-08T05:48:17.862Z,3.78
2023-05-08T05:50:45.357Z,4.03
2023-05-08T05:53:13.111Z,4.25
2023-05-08T05:55:41.340Z,4.90
2023-05-08T05:58:08.843Z,3.10
2023-05-08T06:00:36.766Z,4.28
2023-05-08T06:03:05.758Z,4.05
2023-05-08T06:05:33.389Z,6.40
2023-05-08T06:08:00.695Z,4.88
2023-05-08T06:10:28.598Z,3.85
2023-05-08T06:12:55.786Z,5.22
2023-05-08T06:15:23.514Z,5.45
2023-05-08T06:17:50.890Z,5.70
2023-05-08T06:20:18.740Z,4.35
2023-05-08T06:22:46.050Z,19.33
2023-05-08T06:25:13.897Z,15.40
2023-05-08T06:27:41.394Z,12.40
2023-05-08T06:30:10.836Z,6.82
2023-05-08T06:32:38.388Z,6.00
2023-05-08T06:35:06.805Z,4.30
2023-05-08T06:37:34.068Z,5.07
2023-05-08T06:40:11.684Z,5.95
2023-05-08T06:42:40.838Z,5.63
2023-05-08T06:45:09.821Z,5.55
2023-05-08T06:47:37.761Z,5.65
2023-05-08T06:50:06.418Z,6.97
2023-05-08T06:52:33.740Z,4.90
2023-05-08T06:55:01.306Z,4.85
2023-05-08T06:57:30.347Z,4.57
2023-05-08T06:59:57.906Z,4.35
2023-05-08T07:02:25.155Z,5.40
2023-05-08T07:04:53.008Z,4.50
2023-05-08T07:07:20.354Z,4.00
2023-05-08T07:09:47.985Z,4.68
2023-05-08T07:12:16.835Z,6.35
2023-05-08T07:14:44.399Z,3.75
2023-05-08T07:17:11.680Z,5.10
2023-05-08T07:19:39.426Z,4.03
2023-05-08T07:22:06.840Z,7.78
2023-05-08T07:24:34.555Z,7.05
2023-05-08T07:27:02.234Z,5.57
2023-05-08T07:29:29.812Z,5.22
2023-05-08T07:31:57.086Z,5.20
2023-05-08T07:34:24.721Z,6.68
2023-05-08T07:36:52.081Z,6.10
2023-05-08T07:39:19.671Z,5.82
2023-05-08T07:41:49.628Z,5.20
2023-05-08T07:44:17.575Z,4.50
2023-05-08T07:46:44.880Z,4.68
2023-05-08T07:49:12.486Z,5.35
2023-05-08T07:51:40.344Z,2.75
2023-05-08T07:54:08.097Z,3.25
2023-05-08T07:56:35.603Z,5.13
2023-05-08T07:59:03.224Z,3.75
2023-05-08T08:01:30.544Z,7.25
2023-05-08T08:03:58.319Z,5.43
2023-05-08T08:06:25.741Z,4.72
2023-05-08T08:08:53.472Z,4.18
2023-05-08T08:11:20.929Z,2.80
2023-05-08T08:13:48.546Z,3.75
2023-05-08T08:16:15.904Z,5.15
2023-05-08T08:18:43.522Z,7.00
2023-05-08T08:21:11.115Z,3.83
2023-05-08T08:23:38.479Z,5.15
2023-05-08T08:26:06.656Z,2.90
2023-05-08T08:28:33.955Z,4.07
2023-05-08T08:31:01.677Z,4.93
2023-05-08T08:33:29.890Z,3.78
2023-05-08T08:35:57.584Z,4.05
2023-05-08T08:38:24.939Z,3.83
2023-05-08T08:40:53.566Z,4.25
2023-05-08T08:43:21.081Z,5.32
2023-05-08T08:45:48.831Z,5.18
2023-05-08T08:48:18.108Z,4.45
2023-05-08T08:50:53.190Z,14.02
2023-05-08T08:53:34.651Z,5.70
2023-05-08T08:56:06.580Z,5.75
2023-05-08T08:58:55.102Z,8.93
2023-05-08T09:01:26.164Z,3.45
2023-05-08T09:03:53.828Z,5.05
2023-05-08T09:06:21.756Z,15.85
2023-05-08T09:08:50.371Z,6.20
2023-05-08T09:11:18.003Z,22.23
2023-05-08T09:13:45.928Z,4.47
2023-05-08T09:16:13.680Z,3.80
2023-05-08T09:18:41.266Z,4.75
2023-05-08T09:21:09.938Z,17.67
2023-05-08T09:23:37.836Z,22.92
2023-05-08T09:26:05.505Z,5.57
2023-05-08T09:28:32.876Z,4.28
2023-05-08T09:31:01.741Z,7.65
2023-05-08T09:33:30.250Z,7.50
2023-05-08T09:35:58.378Z,7.15
2023-05-08T09:38:40.138Z,4.57
2023-05-08T09:41:16.790Z,4.03
2023-05-08T09:44:00.050Z,8.50
2023-05-08T09:46:28.301Z,7.18
2023-05-08T09:48:58.802Z,3.50
2023-05-08T09:51:30.513Z,2.88
2023-05-08T09:54:00.528Z,3.20
2023-05-08T09:56:40.049Z,5.65
2023-05-08T09:59:30.420Z,3.83
2023-05-08T10:01:58.912Z,4.80
2023-05-08T10:04:37.471Z,5.75
2023-05-08T10:07:05.434Z,2.92
2023-05-08T10:09:47.115Z,12.23
2023-05-08T10:12:18.921Z,8.43
2023-05-08T10:14:46.915Z,6.03
2023-05-08T10:17:25.396Z,4.82
2023-05-08T10:20:00.319Z,5.53
2023-05-08T10:22:29.783Z,5.45
2023-05-08T10:25:01.002Z,3.38
2023-05-08T10:27:45.285Z,4.90
2023-05-08T10:30:17.375Z,3.75
2023-05-08T10:32:52.896Z,5.75
2023-05-08T10:35:20.735Z,5.65
2023-05-08T10:37:49.807Z,6.47
2023-05-08T10:40:21.822Z,5.43
2023-05-08T10:42:50.874Z,4.53
2023-05-08T10:45:18.958Z,4.32
2023-05-08T10:48:08.829Z,5.43
2023-05-08T10:51:01.236Z,3.55
2023-05-08T10:53:54.344Z,4.32
2023-05-08T10:56:29.320Z,3.58
2023-05-08T10:58:59.028Z,3.55
2023-05-08T11:01:27.390Z,5.20
2023-05-08T11:03:56.155Z,7.82
2023-05-08T11:06:49.273Z,6.00
2023-05-08T11:09:43.184Z,4.28
2023-05-08T11:12:31.700Z,3.97
2023-05-08T11:15:06.710Z,4.85
2023-05-08T11:17:34.902Z,5.43
2023-05-08T11:20:07.040Z,7.35
2023-05-08T11:22:37.052Z,4.40
2023-05-08T11:25:10.882Z,4.90
2023-05-08T11:28:00.947Z,5.25
2023-05-08T11:30:38.726Z,3.92
2023-05-08T11:33:06.787Z,6.70
2023-05-08T11:36:06.745Z,3.22
2023-05-08T11:38:38.684Z,3.95
2023-05-08T11:41:22.083Z,4.00
2023-05-08T11:44:22.947Z,5.00
2023-05-08T11:46:53.754Z,5.78
2023-05-08T11:49:28.902Z,3.85
2023-05-08T11:52:00.051Z,7.03
2023-05-08T11:54:31.943Z,4.47
2023-05-08T11:56:59.916Z,6.53
2023-05-08T11:59:27.463Z,12.75
2023-05-08T12:04:26.976Z,2.25
2023-05-08T12:07:01.030Z,4.47
2023-05-08T12:09:28.429Z,3.45
2023-05-08T12:11:59.298Z,2.33
2023-05-08T12:14:26.977Z,2.50
2023-05-08T12:16:54.884Z,3.65
2023-05-08T12:19:22.269Z,4.63
2023-05-08T12:21:50.169Z,6.32
2023-05-08T12:24:24.506Z,3.58
2023-05-08T12:26:56.363Z,5.60
2023-05-08T12:29:24.318Z,6.38
2023-05-08T12:31:53.872Z,3.05
2023-05-08T12:34:21.853Z,5.32
2023-05-08T12:36:51.420Z,4.35
2023-05-08T12:39:19.173Z,4.30
2023-05-08T12:41:52.149Z,3.60
2023-05-08T12:44:26.683Z,5.50
2023-05-08T12:46:57.254Z,3.38
2023-05-08T12:49:32.746Z,5.32
2023-05-08T12:52:13.054Z,6.07
2023-05-08T12:54:48.523Z,2.63
2023-05-08T12:57:18.593Z,2.45
2023-05-08T12:59:46.961Z,3.67
2023-05-08T13:02:19.385Z,4.97
2023-05-08T13:04:47.298Z,2.45
2023-05-08T13:07:14.771Z,3.08
2023-05-08T13:10:04.899Z,3.53
2023-05-08T13:12:32.752Z,5.25
2023-05-08T13:15:01.083Z,4.95
2023-05-08T13:17:28.485Z,5.07
2023-05-08T13:19:56.107Z,3.35
2023-05-08T13:22:26.781Z,3.47
2023-05-08T13:24:54.500Z,5.95
2023-05-08T13:27:22.054Z,3.83
2023-05-08T13:29:49.746Z,3.53
2023-05-08T13:32:17.280Z,4.70
2023-05-08T13:34:50.407Z,4.85
2023-05-08T13:37:18.979Z,4.00
2023-05-08T13:39:46.772Z,4.40
2023-05-08T13:42:13.972Z,3.92
2023-05-08T13:44:41.575Z,2.55
2023-05-08T13:47:10.115Z,3.05
2023-05-08T13:49:37.822Z,7.35
2023-05-08T13:52:05.723Z,4.20
2023-05-08T13:54:33.373Z,5.28
2023-05-08T13:57:02.776Z,2.80
2023-05-08T13:59:31.528Z,6.82
2023-05-08T14:01:58.975Z,4.28
2023-05-08T14:04:26.711Z,4.25
2023-05-08T14:06:54.100Z,2.60
2023-05-08T14:09:21.910Z,2.47
2023-05-08T14:11:49.475Z,1.90
2023-05-08T14:14:17.149Z,3.38
2023-05-08T14:16:44.584Z,3.38
2023-05-08T14:19:12.247Z,4.20
2023-05-08T14:21:40.689Z,1.77
2023-05-08T14:24:09.104Z,1.40
2023-05-08T14:26:36.466Z,3.60
2023-05-08T14:29:05.419Z,2.72
2023-05-08T14:31:32.855Z,2.35
2023-05-08T14:34:00.520Z,2.90
2023-05-08T14:36:27.995Z,6.03
2023-05-08T14:38:55.662Z,5.63
2023-05-08T14:41:23.277Z,2.53
2023-05-08T14:43:50.886Z,6.03
2023-05-08T14:46:18.399Z,2.78
2023-05-08T14:48:46.446Z,3.25
2023-05-08T14:51:14.388Z,1.95
2023-05-08T14:53:42.274Z,2.97
2023-05-08T14:56:09.861Z,4.68
2023-05-08T14:58:37.720Z,5.07
2023-05-08T15:01:05.534Z,13.80
2023-05-08T15:03:33.464Z,5.28
2023-05-08T15:06:01.289Z,3.22
2023-05-08T15:08:28.982Z,2.50
2023-05-08T15:10:56.236Z,2.45
2023-05-08T15:13:23.922Z,3.95
2023-05-08T15:15:51.509Z,4.53
2023-05-08T15:18:19.322Z,2.83
2023-05-08T15:20:46.639Z,2.25
2023-05-08T15:23:14.287Z,2.75
2023-05-08T15:25:41.692Z,5.55
2023-05-08T15:28:09.285Z,5.50
2023-05-08T15:30:36.561Z,4.10
2023-05-08T15:33:04.285Z,4.25
2023-05-08T15:35:31.681Z,6.30
2023-05-08T15:38:04.679Z,5.60
2023-05-08T15:40:32.708Z,5.45
2023-05-08T15:43:01.159Z,6.63
2023-05-08T15:45:28.582Z,6.00
2023-05-08T15:47:56.473Z,4.35
2023-05-08T15:50:24.082Z,4.13
2023-05-08T15:52:52.032Z,5.95
2023-05-08T15:55:20.364Z,2.58
2023-05-08T15:57:48.856Z,4.32
2023-05-08T16:00:16.736Z,6.00
2023-05-08T16:02:44.930Z,12.98
2023-05-08T16:05:12.679Z,13.25
2023-05-08T16:07:40.474Z,5.15
2023-05-08T16:10:08.944Z,18.35
2023-05-08T16:12:36.643Z,11.23
2023-05-08T16:15:04.456Z,4.72
2023-05-08T16:17:33.611Z,6.50
2023-05-08T16:20:01.839Z,4.75
2023-05-08T16:22:30.954Z,3.63
2023-05-08T16:24:58.792Z,5.10
2023-05-08T16:27:27.908Z,7.32
2023-05-08T16:29:55.487Z,7.65
2023-05-08T16:32:23.547Z,6.72
2023-05-08T16:34:51.264Z,2.95
2023-05-08T16:37:19.031Z,5.07
2023-05-08T16:39:46.449Z,4.95
2023-05-08T16:42:14.105Z,4.22
2023-05-08T16:44:42.060Z,3.97
2023-05-08T16:47:10.854Z,4.65
2023-05-08T16:49:38.636Z,2.53
2023-05-08T16:52:06.804Z,5.55
2023-05-08T16:54:34.195Z,5.07
2023-05-08T16:57:02.202Z,3.38
2023-05-08T16:59:30.119Z,4.65
2023-05-08T17:01:58.116Z,2.67
2023-05-08T17:04:26.173Z,5.82
2023-05-08T17:06:54.216Z,4.47
2023-05-08T17:09:21.689Z,3.78
2023-05-08T17:11:49.369Z,2.92
2023-05-08T17:14:22.825Z,3.90
2023-05-08T17:16:50.431Z,4.30
2023-05-08T17:19:17.728Z,4.72
2023-05-08T17:21:45.469Z,20.35
2023-05-08T17:24:12.799Z,5.22
2023-05-08T17:26:40.608Z,2.70
2023-05-08T17:29:08.085Z,4.00
2023-05-08T17:31:35.685Z,3.95
2023-05-08T17:34:09.930Z,5.72
2023-05-08T17:36:37.476Z,5.53
2023-05-08T17:39:05.052Z,5.15
2023-05-08T17:41:32.633Z,6.18
2023-05-08T17:43:59.890Z,9.13
2023-05-08T17:46:27.606Z,4.88
2023-05-08T17:48:54.897Z,5.82
2023-05-08T17:51:22.516Z,7.95
2023-05-08T17:53:49.830Z,7.18
2023-05-08T17:56:20.624Z,6.00
2023-05-08T17:58:48.015Z,8.48
2023-05-08T18:01:15.928Z,6.10
2023-05-08T18:03:45.087Z,6.72
2023-05-08T18:06:17.947Z,4.88
2023-05-08T18:08:46.780Z,5.05
2023-05-08T18:11:26.225Z,6.35
2023-05-08T18:13:54.781Z,6.47
2023-05-08T18:16:23.171Z,6.30
2023-05-08T18:18:50.951Z,6.30
2023-05-08T18:21:18.736Z,4.90
2023-05-08T18:23:46.176Z,4.40
2023-05-08T18:26:15.896Z,6.63
2023-05-08T18:28:47.119Z,5.00
2023-05-08T18:31:16.499Z,11.48
2023-05-08T18:33:44.041Z,9.15
2023-05-08T18:36:16.687Z,11.27
2023-05-08T18:38:44.087Z,8.02
2023-05-08T18:41:11.729Z,7.68
2023-05-08T18:43:39.180Z,8.77
2023-05-08T18:46:14.375Z,12.82
2023-05-08T18:48:43.744Z,16.08
2023-05-08T18:51:11.484Z,19.35
2023-05-08T18:53:39.450Z,21.55
2023-05-08T18:56:07.314Z,24.15
2023-05-08T18:58:34.577Z,18.23
2023-05-08T19:01:02.319Z,16.95
2023-05-08T19:03:29.693Z,14.75
2023-05-08T19:05:57.669Z,10.38
2023-05-08T19:08:25.281Z,11.02
2023-05-08T19:10:53.418Z,9.75
2023-05-08T19:13:20.773Z,9.65
2023-05-08T19:15:48.460Z,9.13
2023-05-08T19:18:15.839Z,8.95
2023-05-08T19:20:43.413Z,8.18
2023-05-08T19:23:10.751Z,8.98
2023-05-08T19:25:38.436Z,6.25
2023-05-08T19:28:05.855Z,8.07
2023-05-08T19:30:33.390Z,7.88
2023-05-08T19:33:00.660Z,8.10
2023-05-08T19:35:28.281Z,7.57
2023-05-08T19:37:55.732Z,6.68
2023-05-08T19:40:23.284Z,6.93
2023-05-08T19:42:50.715Z,7.05
2023-05-08T19:45:18.353Z,8.18
2023-05-08T19:47:51.925Z,9.98
2023-05-08T19:50:19.840Z,9.52
2023-05-08T19:52:48.806Z,11.13
2023-05-08T19:55:19.709Z,11.65
2023-05-08T19:57:47.026Z,14.35
2023-05-08T20:00:15.088Z,15.32
2023-05-08T20:02:42.748Z,16.02
2023-05-08T20:07:40.870Z,16.10
2023-05-08T20:10:09.163Z,20.23
2023-05-08T20:12:36.835Z,23.10
2023-05-08T20:15:04.963Z,37.15
2023-05-08T20:17:32.481Z,43.25
2023-05-08T20:20:00.277Z,38.50
2023-05-08T20:22:27.668Z,28.00
2023-05-08T20:24:55.388Z,25.45
2023-05-08T20:27:22.841Z,17.60
2023-05-08T20:29:50.611Z,14.30
2023-05-08T20:32:19.256Z,14.90
2023-05-08T20:34:47.112Z,17.65
2023-05-08T20:37:16.121Z,17.88
2023-05-08T20:39:45.134Z,16.73
2023-05-08T20:42:12.778Z,14.55
2023-05-08T20:44:40.577Z,14.18
2023-05-08T20:47:07.913Z,13.43
2023-05-08T20:49:35.596Z,12.35
2023-05-08T20:52:03.123Z,14.07
2023-05-08T20:54:39.603Z,11.48
2023-05-08T20:57:06.836Z,12.73
2023-05-08T20:59:34.401Z,11.75
2023-05-08T21:02:01.790Z,14.35
2023-05-08T21:04:29.707Z,14.43
2023-05-08T21:06:57.867Z,12.15
2023-05-08T21:09:25.660Z,12.55
2023-05-08T21:11:52.956Z,12.73
2023-05-08T21:14:29.619Z,10.70
2023-05-08T21:16:56.998Z,14.05
2023-05-08T21:19:24.701Z,11.27
2023-05-08T21:21:52.054Z,14.13
2023-05-08T21:24:19.608Z,12.48
2023-05-08T21:26:46.832Z,13.45
2023-05-08T21:29:14.431Z,9.77
2023-05-08T21:31:42.124Z,9.25
2023-05-08T21:34:09.748Z,11.02
2023-05-08T21:36:37.023Z,13.10
2023-05-08T21:39:04.891Z,11.80
2023-05-08T21:41:33.148Z,12.57
2023-05-08T21:44:00.833Z,14.10
2023-05-08T21:46:28.219Z,10.85
2023-05-08T21:48:55.887Z,11.30
2023-05-08T21:51:23.220Z,14.80
2023-05-08T21:53:51.813Z,11.20
2023-05-08T21:56:19.187Z,9.63
2023-05-08T21:58:46.853Z,10.38
2023-05-08T22:01:14.085Z,12.15
2023-05-08T22:03:44.102Z,12.35
2023-05-08T22:06:11.472Z,12.27
2023-05-08T22:08:39.056Z,12.57
2023-05-08T22:11:06.302Z,11.95
2023-05-08T22:13:33.904Z,21.00
2023-05-08T22:16:01.182Z,15.02
2023-05-08T22:18:28.806Z,15.13
2023-05-08T22:20:56.599Z,14.60
2023-05-08T22:23:24.221Z,19.02
2023-05-08T22:25:52.100Z,16.88
2023-05-08T22:28:19.795Z,19.92
2023-05-08T22:30:47.051Z,17.02
2023-05-08T22:33:14.629Z,18.88
2023-05-08T22:35:41.891Z,18.40
2023-05-08T22:38:09.491Z,15.52
2023-05-08T22:40:36.873Z,18.67
2023-05-08T22:43:04.662Z,15.77
2023-05-08T22:45:32.928Z,14.23
2023-05-08T22:48:01.036Z,15.02
2023-05-08T22:50:28.660Z,14.48
2023-05-08T22:52:56.200Z,15.18
2023-05-08T22:55:23.534Z,14.60
2023-05-08T22:57:51.271Z,14.52
2023-05-08T23:00:18.905Z,13.88
2023-05-08T23:02:46.613Z,15.35
2023-05-08T23:05:14.785Z,15.40
2023-05-08T23:07:42.644Z,13.75
2023-05-08T23:10:10.762Z,15.13
2023-05-08T23:12:38.329Z,13.65
2023-05-08T23:15:06.605Z,13.02
2023-05-08T23:17:34.411Z,14.75
2023-05-08T23:20:01.879Z,16.70
2023-05-08T23:22:29.603Z,14.35
2023-05-08T23:24:56.990Z,12.73
2023-05-08T23:27:25.825Z,13.43
2023-05-08T23:29:53.156Z,16.40
2023-05-08T23:32:20.833Z,17.52
2023-05-08T23:34:48.128Z,20.83
2023-05-08T23:37:15.718Z,20.15
2023-05-08T23:39:43.046Z,21.17
2023-05-08T23:42:10.686Z,16.20
2023-05-08T23:44:37.993Z,22.02
2023-05-08T23:47:05.686Z,19.77
2023-05-08T23:49:33.060Z,19.98
2023-05-08T23:52:00.696Z,19.50
2023-05-08T23:54:27.941Z,18.50
2023-05-08T23:56:56.566Z,18.80
2023-05-08T23:59:23.812Z,18.27
